KDAB/DAB METAR and TAF weather

Enter ICAO airport designator
Station Type Date Time Source
KDAB METAR 2020/08/07 11:53 UTC NOAA

KDAB 071153Z 00000KT 10SM SCT033 SCT110 SCT200 24/24 A3008 RMK AO2 SLP184 70008 T02390239 10244 20228 53013


Station Type Date Time Source
KDAB Decoded METAR 2020/08/07 11:53 UTC NOAA

DAYTONA BEACH INTERNATIONAL, FL, United States (KDAB) 29-10N 81-04W 9M
Aug 07, 2020 - 07:53 AM EDT / 2020.08.07 1153 UTC
Wind: Calm:0
Visibility: 10 mile(s):0
Sky conditions: partly cloudy
Temperature: 75.0 F (23.9 C)
Dew Point: 75.0 F (23.9 C)
Relative Humidity: 100%
Pressure (altimeter): 30.08 in. Hg (1018 hPa)
Pressure tendency: 0.04 inches (1.3 hPa) higher than three hours ago
ob: KDAB 071153Z 00000KT 10SM SCT033 SCT110 SCT200 24/24 A3008 RMK AO2 SLP184 70008 T02390239 10244 20228 53013
cycle: 12

Station Type Date Time Source
KDAB TAF 2020/08/07 12:46 UTC NOAA

TAF KDAB 071143Z 0712/0812 VRB03KT P6SM FEW030 SCT180
FM071400 VRB05KT P6SM SCT025 SCT250
FM071800 09007KT P6SM SCT035 BKN250
FM080100 20003KT P6SM SCT250

Example: see airport list